createdAt,value
2018-10-02T00:00:27.247Z,5.50
2018-10-02T00:03:01.079Z,7.03
2018-10-02T00:05:35.092Z,6.47
2018-10-02T00:08:08.997Z,5.97
2018-10-02T00:10:47.205Z,5.33
2018-10-02T00:13:26.499Z,8.30
2018-10-02T00:16:00.451Z,8.93
2018-10-02T00:18:34.258Z,7.77
2018-10-02T00:21:08.293Z,7.63
2018-10-02T00:23:42.094Z,5.17
2018-10-02T00:26:15.975Z,8.67
2018-10-02T00:28:49.924Z,6.90
2018-10-02T00:31:24.027Z,7.67
2018-10-02T00:33:59.105Z,6.30
2018-10-02T00:36:33.000Z,8.60
2018-10-02T00:39:06.919Z,5.87
2018-10-02T00:41:40.792Z,5.27
2018-10-02T00:44:14.775Z,6.47
2018-10-02T00:46:48.509Z,5.40
2018-10-02T00:49:22.318Z,6.13
2018-10-02T00:51:56.195Z,6.23
2018-10-02T00:54:30.018Z,5.17
2018-10-02T00:57:03.896Z,7.03
2018-10-02T00:59:37.764Z,7.90
2018-10-02T01:02:11.660Z,26.53
2018-10-02T01:04:45.334Z,5.60
2018-10-02T01:07:19.210Z,7.70
2018-10-02T01:09:53.015Z,9.70
2018-10-02T01:12:26.770Z,7.77
2018-10-02T01:15:00.626Z,6.90
2018-10-02T01:17:34.481Z,9.50
2018-10-02T01:20:08.384Z,7.40
2018-10-02T01:22:42.342Z,8.70
2018-10-02T01:25:16.181Z,6.63
2018-10-02T01:27:51.153Z,4.73
2018-10-02T01:30:24.977Z,4.50
2018-10-02T01:32:59.034Z,4.83
2018-10-02T01:35:32.768Z,5.37
2018-10-02T01:38:06.870Z,5.33
2018-10-02T01:40:40.620Z,4.63
2018-10-02T01:43:14.598Z,5.13
2018-10-02T01:45:48.329Z,4.47
2018-10-02T01:48:22.154Z,5.47
2018-10-02T01:50:56.110Z,3.43
2018-10-02T01:53:30.096Z,5.40
2018-10-02T01:56:03.915Z,5.07
2018-10-02T01:58:37.689Z,4.10
2018-10-02T02:01:11.513Z,3.63
2018-10-02T02:03:45.446Z,4.73
2018-10-02T02:06:19.375Z,3.17
2018-10-02T02:08:53.372Z,2.60
2018-10-02T02:11:27.607Z,5.53
2018-10-02T02:14:01.434Z,5.20
2018-10-02T02:16:35.164Z,4.53
2018-10-02T02:19:09.260Z,3.30
2018-10-02T02:21:43.274Z,5.20
2018-10-02T02:24:17.477Z,4.47
2018-10-02T02:26:51.220Z,4.13
2018-10-02T02:29:27.362Z,9.83
2018-10-02T02:32:01.480Z,2.93
2018-10-02T02:34:35.584Z,3.83
2018-10-02T02:37:09.467Z,7.33
2018-10-02T02:39:43.482Z,5.27
2018-10-02T02:42:17.481Z,4.07
2018-10-02T02:44:51.351Z,6.50
2018-10-02T02:47:30.491Z,3.87
2018-10-02T02:50:10.353Z,5.30
2018-10-02T02:52:47.110Z,5.87
2018-10-02T02:55:21.028Z,6.70
2018-10-02T02:57:55.162Z,4.10
2018-10-02T03:00:29.143Z,5.87
2018-10-02T03:03:02.961Z,4.67
2018-10-02T03:05:36.990Z,4.90
2018-10-02T03:08:10.877Z,4.63
2018-10-02T03:10:44.839Z,3.33
2018-10-02T03:13:18.789Z,5.07
2018-10-02T03:15:52.862Z,6.83
2018-10-02T03:18:26.778Z,4.10
2018-10-02T03:21:00.614Z,3.73
2018-10-02T03:23:34.574Z,3.40
2018-10-02T03:26:08.655Z,3.60
2018-10-02T03:28:44.149Z,4.97
2018-10-02T03:31:20.045Z,3.37
2018-10-02T03:33:54.893Z,4.83
2018-10-02T03:36:29.541Z,5.37
2018-10-02T03:39:03.675Z,3.90
2018-10-02T03:41:37.561Z,2.83
2018-10-02T03:44:11.566Z,4.33
2018-10-02T03:46:46.314Z,6.50
2018-10-02T03:49:21.231Z,5.97
2018-10-02T03:51:55.882Z,6.73
2018-10-02T03:54:29.908Z,3.47
2018-10-02T03:57:03.757Z,3.20
2018-10-02T03:59:37.816Z,5.47
2018-10-02T04:02:11.986Z,5.43
2018-10-02T04:04:46.205Z,6.83
2018-10-02T04:07:20.153Z,4.30
2018-10-02T04:09:54.030Z,5.70
2018-10-02T04:12:28.622Z,6.13
2018-10-02T04:15:02.665Z,5.73
2018-10-02T04:17:36.649Z,6.03
2018-10-02T04:20:10.549Z,4.27
2018-10-02T04:22:44.504Z,3.43
2018-10-02T04:25:18.488Z,2.97
2018-10-02T04:27:52.137Z,3.17
2018-10-02T04:30:26.073Z,6.43
2018-10-02T04:32:59.903Z,5.23
2018-10-02T04:35:33.689Z,4.83
2018-10-02T04:38:07.499Z,3.70
2018-10-02T04:40:41.362Z,4.63
2018-10-02T04:43:15.282Z,6.97
2018-10-02T04:45:49.262Z,4.73
2018-10-02T04:48:23.371Z,5.27
2018-10-02T04:50:58.443Z,2.50
2018-10-02T04:53:32.719Z,6.37
2018-10-02T04:56:06.862Z,4.40
2018-10-02T04:58:40.708Z,4.90
2018-10-02T05:01:14.786Z,6.03
2018-10-02T05:03:48.750Z,4.33
2018-10-02T05:06:22.816Z,4.83
2018-10-02T05:08:56.764Z,6.83
2018-10-02T05:11:30.708Z,4.10
2018-10-02T05:14:04.634Z,5.00
2018-10-02T05:16:38.402Z,5.73
2018-10-02T05:19:12.489Z,6.30
2018-10-02T05:21:46.269Z,4.37
2018-10-02T05:24:20.268Z,6.10
2018-10-02T05:26:54.263Z,4.07
2018-10-02T05:29:28.364Z,5.13
2018-10-02T05:32:02.132Z,9.17
2018-10-02T05:34:36.007Z,4.43
2018-10-02T05:37:09.711Z,4.30
2018-10-02T05:39:43.529Z,6.17
2018-10-02T05:42:17.288Z,7.60
2018-10-02T05:44:51.247Z,9.37
2018-10-02T05:47:29.683Z,6.80
2018-10-02T05:50:03.674Z,9.53
2018-10-02T05:52:37.687Z,10.07
2018-10-02T05:55:11.521Z,8.17
2018-10-02T05:57:46.624Z,5.87
2018-10-02T06:00:23.744Z,10.53
2018-10-02T06:02:57.684Z,11.97
2018-10-02T06:05:31.751Z,8.90
2018-10-02T06:08:05.654Z,7.63
2018-10-02T06:10:39.599Z,7.80
2018-10-02T06:13:13.561Z,6.23
2018-10-02T06:15:47.315Z,6.47
2018-10-02T06:18:22.005Z,7.40
2018-10-02T06:20:56.088Z,7.40
2018-10-02T06:23:30.050Z,7.47
2018-10-02T06:26:03.798Z,6.43
2018-10-02T06:28:37.894Z,8.67
2018-10-02T06:31:11.893Z,11.27
2018-10-02T06:33:45.806Z,7.23
2018-10-02T06:36:19.796Z,8.63
2018-10-02T06:38:53.834Z,8.97
2018-10-02T06:41:27.694Z,11.40
2018-10-02T06:44:01.603Z,9.73
2018-10-02T06:46:35.592Z,6.93
2018-10-02T06:49:09.347Z,11.27
2018-10-02T06:51:43.385Z,9.33
2018-10-02T06:54:17.111Z,9.47
2018-10-02T06:56:51.182Z,9.37
2018-10-02T06:59:24.977Z,7.17
2018-10-02T07:01:58.775Z,4.63
2018-10-02T07:04:32.677Z,8.50
2018-10-02T07:07:06.501Z,7.10
2018-10-02T07:09:40.496Z,7.23
2018-10-02T07:12:14.428Z,7.63
2018-10-02T07:14:48.345Z,10.27
2018-10-02T07:17:22.302Z,9.40
2018-10-02T07:19:56.230Z,9.27
2018-10-02T07:22:30.186Z,8.33
2018-10-02T07:25:04.168Z,6.70
2018-10-02T07:27:37.987Z,9.23
2018-10-02T07:30:11.923Z,5.10
2018-10-02T07:32:45.871Z,6.87
2018-10-02T07:35:19.739Z,5.53
2018-10-02T07:37:53.480Z,4.07
2018-10-02T07:40:27.509Z,4.63
2018-10-02T07:43:01.299Z,4.97
2018-10-02T07:45:35.272Z,4.57
2018-10-02T07:48:09.723Z,5.93
2018-10-02T07:50:43.792Z,4.63
2018-10-02T07:53:17.502Z,4.30
2018-10-02T07:55:51.284Z,3.77
2018-10-02T07:58:25.296Z,4.53
2018-10-02T08:00:59.220Z,9.67
2018-10-02T08:03:33.606Z,3.37
2018-10-02T08:06:08.026Z,3.63
2018-10-02T08:08:41.777Z,4.90
2018-10-02T08:11:15.561Z,4.50
2018-10-02T08:13:49.418Z,6.13
2018-10-02T08:16:23.368Z,4.13
2018-10-02T08:18:57.415Z,3.70
2018-10-02T08:21:32.077Z,4.27
2018-10-02T08:24:06.116Z,2.80
2018-10-02T08:26:39.998Z,3.83
2018-10-02T08:29:13.800Z,4.33
2018-10-02T08:31:47.751Z,4.63
2018-10-02T08:34:21.651Z,3.13
2018-10-02T08:36:57.625Z,6.67
2018-10-02T08:39:31.461Z,5.60
2018-10-02T08:42:05.331Z,3.67
2018-10-02T08:44:39.380Z,3.93
2018-10-02T08:47:13.273Z,4.70
2018-10-02T08:49:47.262Z,4.03
2018-10-02T08:52:21.224Z,4.23
2018-10-02T08:54:55.012Z,3.60
2018-10-02T08:57:28.970Z,4.50
2018-10-02T09:00:02.980Z,3.80
2018-10-02T09:02:36.870Z,3.93
2018-10-02T09:05:10.817Z,3.10
2018-10-02T09:07:44.715Z,3.37
2018-10-02T09:10:18.789Z,2.83
2018-10-02T09:12:52.697Z,3.00
2018-10-02T09:15:26.563Z,2.67
2018-10-02T09:18:00.474Z,3.43
2018-10-02T09:20:34.554Z,4.37
2018-10-02T09:23:08.267Z,4.17
2018-10-02T09:25:42.092Z,3.63
2018-10-02T09:28:15.690Z,2.93
2018-10-02T09:30:54.974Z,2.63
2018-10-02T09:33:34.404Z,3.00
2018-10-02T09:36:13.697Z,2.93
2018-10-02T09:38:52.549Z,3.53
2018-10-02T09:41:31.922Z,2.00
2018-10-02T09:44:05.981Z,3.80
2018-10-02T09:46:39.718Z,2.50
2018-10-02T09:49:13.276Z,3.40
2018-10-02T09:51:47.121Z,1.80
2018-10-02T09:54:20.732Z,1.77
2018-10-02T09:56:54.583Z,1.90
2018-10-02T09:59:28.485Z,1.30
2018-10-02T10:02:36.982Z,1.47
2018-10-02T10:05:10.648Z,1.77
2018-10-02T10:07:44.518Z,2.73
2018-10-02T10:10:18.438Z,1.90
2018-10-02T10:12:52.459Z,1.47
2018-10-02T10:15:26.193Z,1.83
2018-10-02T10:17:59.950Z,1.20
2018-10-02T10:20:33.703Z,0.70
2018-10-02T10:23:07.637Z,2.77
2018-10-02T10:25:41.435Z,2.07
2018-10-02T10:28:15.352Z,4.00
2018-10-02T10:30:49.228Z,2.90
2018-10-02T10:33:23.265Z,3.93
2018-10-02T10:35:57.233Z,4.23
2018-10-02T10:38:31.185Z,2.60
2018-10-02T10:41:05.167Z,1.70
2018-10-02T10:43:39.034Z,3.37
2018-10-02T10:46:13.028Z,3.00
2018-10-02T10:48:46.933Z,1.47
2018-10-02T10:51:20.819Z,3.00
2018-10-02T10:53:54.777Z,2.87
2018-10-02T10:56:28.800Z,1.33
2018-10-02T10:59:02.756Z,2.20
2018-10-02T11:01:36.711Z,2.80
2018-10-02T11:04:10.720Z,2.47
2018-10-02T11:06:44.696Z,2.87
2018-10-02T11:09:18.673Z,4.37
2018-10-02T11:11:52.685Z,2.60
2018-10-02T11:14:26.597Z,2.40
2018-10-02T11:17:00.261Z,1.73
2018-10-02T11:19:34.333Z,2.70
2018-10-02T11:22:08.165Z,2.67
2018-10-02T11:24:41.936Z,1.77
2018-10-02T11:27:15.747Z,3.13
2018-10-02T11:29:49.829Z,2.23
2018-10-02T11:32:23.594Z,2.80
2018-10-02T11:34:57.720Z,3.63
2018-10-02T11:37:31.477Z,1.67
2018-10-02T11:40:05.398Z,3.43
2018-10-02T11:42:39.365Z,2.80
2018-10-02T11:45:13.361Z,3.87
2018-10-02T11:47:47.228Z,1.90
2018-10-02T11:50:21.298Z,2.13
2018-10-02T11:52:55.152Z,2.43
2018-10-02T11:55:29.121Z,2.10
2018-10-02T11:58:03.272Z,2.40
2018-10-02T12:00:37.196Z,1.50
2018-10-02T12:03:11.084Z,1.67
2018-10-02T12:05:45.297Z,2.60
2018-10-02T12:08:19.327Z,2.37
2018-10-02T12:10:53.075Z,4.23
2018-10-02T12:13:27.426Z,4.60
2018-10-02T12:16:01.713Z,1.50
2018-10-02T12:18:35.647Z,2.83
2018-10-02T12:21:09.538Z,2.60
2018-10-02T12:23:43.656Z,2.10
2018-10-02T12:26:17.451Z,3.20
2018-10-02T12:28:51.383Z,2.33
2018-10-02T12:31:25.398Z,1.73
2018-10-02T12:33:59.138Z,1.47
2018-10-02T12:36:33.120Z,2.30
2018-10-02T12:39:07.474Z,2.90
2018-10-02T12:41:41.325Z,3.30
2018-10-02T12:44:15.332Z,1.83
2018-10-02T12:46:50.326Z,1.97
2018-10-02T12:49:24.085Z,1.93
2018-10-02T12:51:58.091Z,2.23
2018-10-02T12:54:31.972Z,2.20
2018-10-02T12:57:05.846Z,1.77
2018-10-02T12:59:39.951Z,2.30
2018-10-02T13:02:14.033Z,2.07
2018-10-02T13:04:47.986Z,2.10
2018-10-02T13:07:21.975Z,1.97
2018-10-02T13:09:55.804Z,3.40
2018-10-02T13:12:29.652Z,3.43
2018-10-02T13:15:03.383Z,3.40
2018-10-02T13:17:37.310Z,3.40
2018-10-02T13:20:11.201Z,3.63
2018-10-02T13:22:45.011Z,2.03
2018-10-02T13:25:18.972Z,2.50
2018-10-02T13:27:52.988Z,2.47
2018-10-02T13:30:26.929Z,3.87
2018-10-02T13:33:00.667Z,5.20
2018-10-02T13:35:34.633Z,3.77
2018-10-02T13:38:08.509Z,4.90
2018-10-02T13:40:42.362Z,6.37
2018-10-02T13:43:16.259Z,4.27
2018-10-02T13:45:50.209Z,2.77
2018-10-02T13:48:24.154Z,3.33
2018-10-02T13:50:57.951Z,2.63
2018-10-02T13:53:31.761Z,2.43
2018-10-02T13:56:05.513Z,3.10
2018-10-02T13:58:39.448Z,2.90
2018-10-02T14:01:13.248Z,2.43
2018-10-02T14:03:47.133Z,2.63
2018-10-02T14:06:20.912Z,3.13
2018-10-02T14:08:54.561Z,2.67
2018-10-02T14:11:28.382Z,3.27
2018-10-02T14:14:02.292Z,3.13
2018-10-02T14:16:36.089Z,3.03
2018-10-02T14:19:09.971Z,2.87
2018-10-02T14:21:44.043Z,4.00
2018-10-02T14:24:17.647Z,2.53
2018-10-02T14:26:51.581Z,5.63
2018-10-02T14:29:25.401Z,2.50
2018-10-02T14:31:59.425Z,2.90
2018-10-02T14:34:33.279Z,2.37
2018-10-02T14:37:07.086Z,2.47
2018-10-02T14:39:40.941Z,3.27
2018-10-02T14:42:14.733Z,2.67
2018-10-02T14:44:48.495Z,2.30
2018-10-02T14:47:22.287Z,3.13
2018-10-02T14:49:56.175Z,2.93
2018-10-02T14:52:29.952Z,2.53
2018-10-02T14:55:03.730Z,3.00
2018-10-02T14:57:37.648Z,3.47
2018-10-02T15:00:11.437Z,2.70
2018-10-02T15:02:45.161Z,2.00
2018-10-02T15:05:19.433Z,4.27
2018-10-02T15:07:53.172Z,1.70
2018-10-02T15:10:27.061Z,4.17
2018-10-02T15:13:00.799Z,2.57
2018-10-02T15:15:34.990Z,1.67
2018-10-02T15:18:09.210Z,3.03
2018-10-02T15:20:59.669Z,2.27
2018-10-02T15:23:33.540Z,1.60
2018-10-02T15:26:07.565Z,3.00
2018-10-02T15:28:41.520Z,2.83
2018-10-02T15:31:15.565Z,2.37
2018-10-02T15:33:49.563Z,2.80
2018-10-02T15:36:23.549Z,2.13
2018-10-02T15:38:57.295Z,2.60
2018-10-02T15:41:31.129Z,1.80
2018-10-02T15:44:04.840Z,4.70
2018-10-02T15:46:38.593Z,3.43
2018-10-02T15:49:12.327Z,2.33
2018-10-02T15:51:46.285Z,2.07
2018-10-02T15:54:20.071Z,3.83
2018-10-02T15:56:53.971Z,1.73
2018-10-02T15:59:27.802Z,3.23
2018-10-02T16:02:01.547Z,1.73
2018-10-02T16:04:35.368Z,1.07
2018-10-02T16:07:09.323Z,2.43
2018-10-02T16:09:43.009Z,1.97
2018-10-02T16:12:16.689Z,4.30
2018-10-02T16:14:50.604Z,3.17
2018-10-02T16:17:24.311Z,4.03
2018-10-02T16:19:58.357Z,2.53
2018-10-02T16:22:32.355Z,4.17
2018-10-02T16:25:06.069Z,2.27
2018-10-02T16:27:39.797Z,3.97
2018-10-02T16:30:13.772Z,4.47
2018-10-02T16:32:47.713Z,2.57
2018-10-02T16:35:21.582Z,3.43
2018-10-02T16:37:55.535Z,2.47
2018-10-02T16:40:29.446Z,2.17
2018-10-02T16:43:03.242Z,2.83
2018-10-02T16:45:37.147Z,1.83
2018-10-02T16:48:11.968Z,4.93
2018-10-02T17:07:16.671Z,2.97
2018-10-02T17:09:51.242Z,3.63
2018-10-02T17:22:37.754Z,1.77
2018-10-02T17:25:11.930Z,4.60
2018-10-02T17:27:46.099Z,1.90
2018-10-02T17:30:20.295Z,3.70
2018-10-02T17:32:54.621Z,4.77
2018-10-02T17:35:28.959Z,2.90
2018-10-02T17:38:03.256Z,4.80
2018-10-02T17:42:45.129Z,2.37
2018-10-02T17:46:11.485Z,2.23
2018-10-02T17:54:34.900Z,3.03
2018-10-02T18:00:59.200Z,3.07
2018-10-02T18:17:06.904Z,2.90
2018-10-02T18:19:40.867Z,3.30
2018-10-02T18:22:14.950Z,4.37
2018-10-02T18:24:50.366Z,4.10
2018-10-02T18:27:24.518Z,4.57
2018-10-02T18:30:08.097Z,3.40
2018-10-02T18:35:11.736Z,3.53
2018-10-02T18:40:37.947Z,2.43
2018-10-02T18:43:11.970Z,2.07
2018-10-02T18:45:49.158Z,2.03
2018-10-02T18:54:10.061Z,3.90
2018-10-02T18:56:44.583Z,3.20
2018-10-02T18:59:18.924Z,2.07
2018-10-02T19:01:53.418Z,1.97
2018-10-02T19:07:17.439Z,4.50
2018-10-02T19:09:51.803Z,3.10
2018-10-02T19:12:25.640Z,3.43
2018-10-02T19:14:59.411Z,3.73
2018-10-02T19:17:33.256Z,3.20
2018-10-02T19:20:12.340Z,4.50
2018-10-02T19:22:46.251Z,4.13
2018-10-02T19:25:25.586Z,2.53
2018-10-02T19:27:59.562Z,4.17
2018-10-02T19:30:39.164Z,3.23
2018-10-02T19:33:13.241Z,3.93
2018-10-02T19:35:47.027Z,2.30
2018-10-02T19:38:26.126Z,4.10
2018-10-02T19:41:00.052Z,2.43
2018-10-02T19:43:33.967Z,3.10
2018-10-02T19:46:13.197Z,5.03
2018-10-02T19:48:47.233Z,3.03
2018-10-02T19:51:26.335Z,4.83
2018-10-02T19:54:00.338Z,2.77
2018-10-02T19:56:34.339Z,4.40
2018-10-02T19:59:08.526Z,2.90
2018-10-02T20:01:42.366Z,4.20
2018-10-02T20:04:16.131Z,3.17
2018-10-02T20:06:50.197Z,2.80
2018-10-02T20:09:24.137Z,3.50
2018-10-02T20:11:57.901Z,3.13
2018-10-02T20:14:31.656Z,4.13
2018-10-02T20:17:05.607Z,2.77
2018-10-02T20:19:39.544Z,3.40
2018-10-02T20:22:13.360Z,1.90
2018-10-02T20:24:47.080Z,2.90
2018-10-02T20:27:20.875Z,2.83
2018-10-02T20:29:54.881Z,2.47
2018-10-02T20:32:28.838Z,2.80
2018-10-02T20:35:02.683Z,4.43
2018-10-02T20:37:36.755Z,2.37
2018-10-02T20:40:10.647Z,3.07
2018-10-02T20:42:44.653Z,2.17
2018-10-02T20:45:18.459Z,2.90
2018-10-02T20:47:52.342Z,3.77
2018-10-02T20:50:26.059Z,3.73
2018-10-02T20:52:59.773Z,3.33
2018-10-02T20:55:33.660Z,3.03
2018-10-02T20:58:07.288Z,2.90
2018-10-02T21:00:41.098Z,3.23
2018-10-02T21:03:15.021Z,6.47
2018-10-02T21:05:48.798Z,2.57
2018-10-02T21:08:22.703Z,3.40
2018-10-02T21:10:56.429Z,4.73
2018-10-02T21:13:30.391Z,3.37
2018-10-02T21:16:04.165Z,1.50
2018-10-02T21:18:37.938Z,5.10
2018-10-02T21:21:11.751Z,3.10
2018-10-02T21:23:45.665Z,3.00
2018-10-02T21:26:19.510Z,2.83
2018-10-02T21:28:53.431Z,3.30
2018-10-02T21:31:27.536Z,2.90
2018-10-02T21:34:01.264Z,4.50
2018-10-02T21:36:35.146Z,5.10
2018-10-02T21:39:09.838Z,2.70
2018-10-02T21:41:43.832Z,3.73
2018-10-02T21:44:17.546Z,4.70
2018-10-02T21:46:51.443Z,5.23
2018-10-02T21:49:25.195Z,2.43
2018-10-02T21:51:59.173Z,3.00
2018-10-02T21:54:32.962Z,4.53
2018-10-02T21:57:07.179Z,2.57
2018-10-02T21:59:41.152Z,3.20
2018-10-02T22:02:14.927Z,1.40
2018-10-02T22:04:48.752Z,1.97
2018-10-02T22:07:22.636Z,2.80
2018-10-02T22:09:57.373Z,2.53
2018-10-02T22:12:31.594Z,2.20
2018-10-02T22:15:05.786Z,1.30
2018-10-02T22:17:39.878Z,1.70
2018-10-02T22:20:13.833Z,1.73
2018-10-02T22:22:48.172Z,2.17
2018-10-02T22:25:22.127Z,2.20
2018-10-02T22:27:56.796Z,0.83
2018-10-02T22:30:31.121Z,3.70
2018-10-02T22:33:04.737Z,4.80
2018-10-02T22:35:39.153Z,2.43
2018-10-02T22:38:13.045Z,3.70
2018-10-02T22:40:47.736Z,2.57
2018-10-02T22:43:22.095Z,2.30
2018-10-02T22:45:56.159Z,2.13
2018-10-02T22:48:30.824Z,1.57
2018-10-02T22:51:05.563Z,1.50
2018-10-02T22:53:39.746Z,1.87
2018-10-02T22:56:13.674Z,2.00
2018-10-02T22:58:47.531Z,2.97
2018-10-02T23:01:21.412Z,2.27
2018-10-02T23:03:55.413Z,1.80
2018-10-02T23:06:29.207Z,2.23
2018-10-02T23:09:03.736Z,2.73
2018-10-02T23:11:37.545Z,1.90
2018-10-02T23:14:11.320Z,2.07
2018-10-02T23:16:45.171Z,1.83
2018-10-02T23:19:19.078Z,2.03
2018-10-02T23:21:53.002Z,1.10
2018-10-02T23:24:26.866Z,1.20
2018-10-02T23:27:00.778Z,2.13
2018-10-02T23:29:34.507Z,2.30
2018-10-02T23:32:08.496Z,1.17
2018-10-02T23:34:42.662Z,2.80
2018-10-02T23:37:16.510Z,1.43
2018-10-02T23:39:50.405Z,5.63
2018-10-02T23:42:24.213Z,4.00
2018-10-02T23:44:58.077Z,3.03
2018-10-02T23:47:31.854Z,1.03
2018-10-02T23:50:05.800Z,1.83
2018-10-02T23:52:39.578Z,1.63
2018-10-02T23:55:13.470Z,1.67
2018-10-02T23:57:47.299Z,2.13
